Time;durP1;ratioP1;P1;durP2;ratioP2;P2;SDS_P1;SDS_P2;PMS_P1;PMS_P2;Temp;Humidity;BMP_temperature;BMP_pressure;BME280_temperature;BME280_humidity;BME280_pressure;Samples;Min_cycle;Max_cycle;Signal;HPM_P1;HPM_P2
2022/09/09 00:00:44;;;;;;;;;2.75;0.75;;;;;19.84;58.84;100589.81;4898440;29;45506;-82
2022/09/09 00:03:17;;;;;;;;;3.00;0.50;;;;;19.86;58.75;100589.72;4886955;29;45278;-82
2022/09/09 00:06:25;;;;;;;;;1.00;1.00;;;;;19.86;58.49;100595.13;4884770;29;45333;-82
2022/09/09 00:09:15;;;;;;;;;0.00;0.00;;;;;19.82;58.74;100590.94;4886980;29;45220;-82
2022/09/09 00:12:06;;;;;;;;;2.00;0.75;;;;;19.77;58.70;100581.28;4875474;29;45526;-82
2022/09/09 00:14:55;;;;;;;;;2.00;1.00;;;;;19.75;58.90;100583.25;4899765;29;45406;-82
2022/09/09 00:17:42;;;;;;;;;2.75;1.00;;;;;19.72;58.69;100583.44;4901452;29;45413;-82
2022/09/09 00:20:26;;;;;;;;;3.25;0.25;;;;;19.72;58.85;100590.72;4875695;29;45357;-82
2022/09/09 00:23:11;;;;;;;;;1.00;1.00;;;;;19.70;58.58;100592.66;4903697;29;45513;-82
2022/09/09 00:25:48;;;;;;;;;2.00;1.00;;;;;19.66;58.84;100581.16;4897094;29;45370;-82
2022/09/09 00:28:20;;;;;;;;;0.00;0.00;;;;;19.68;59.09;100586.47;4886721;29;45200;-82
2022/09/09 00:30:49;;;;;;;;;1.00;0.75;;;;;19.65;59.12;100601.13;4903714;29;45395;-80
2022/09/09 00:33:21;;;;;;;;;0.50;0.50;;;;;19.66;58.93;100591.16;4887014;29;45463;-80
2022/09/09 00:35:56;;;;;;;;;2.00;1.00;;;;;19.63;59.02;100592.25;4903121;29;45427;-80
2022/09/09 00:38:43;;;;;;;;;0.50;0.00;;;;;19.62;59.14;100591.38;4877511;29;45347;-80
2022/09/09 00:41:18;;;;;;;;;1.50;1.00;;;;;19.60;59.04;100592.47;4901274;29;45375;-83
2022/09/09 00:43:55;;;;;;;;;1.75;1.00;;;;;19.56;59.19;100583.72;4885814;29;45897;-83
2022/09/09 00:46:39;;;;;;;;;0.50;0.50;;;;;19.55;59.36;100590.09;4905294;29;45295;-83
2022/09/09 00:49:20;;;;;;;;;3.25;1.00;;;;;19.54;59.38;100588.34;4889105;29;45220;-82
2022/09/09 00:52:06;;;;;;;;;1.00;1.00;;;;;19.50;59.46;100580.59;4892503;29;45335;-82
2022/09/09 00:55:07;;;;;;;;;0.50;0.00;;;;;19.47;59.63;100581.66;4870134;29;45423;-82
2022/09/09 00:57:35;;;;;;;;;0.00;0.00;;;;;19.46;59.75;100581.75;4893165;29;45243;-82
2022/09/09 01:00:04;;;;;;;;;0.75;0.75;;;;;19.46;59.63;100576.34;4882501;29;45363;-82
2022/09/09 01:02:33;;;;;;;;;2.00;2.00;;;;;19.44;59.95;100577.34;4896155;29;45342;-82
2022/09/09 01:05:10;;;;;;;;;0.50;0.50;;;;;19.44;59.67;100562.94;4885646;29;45339;-82
2022/09/09 01:07:36;;;;;;;;;1.50;1.00;;;;;19.37;59.78;100561.66;4901582;29;45452;-82
2022/09/09 01:10:12;;;;;;;;;1.00;1.00;;;;;19.41;59.63;100574.84;4873819;29;45804;-82
2022/09/09 01:12:47;;;;;;;;;0.50;0.00;;;;;19.40;59.98;100570.41;4899145;29;45288;-83
2022/09/09 01:15:22;;;;;;;;;1.00;1.00;;;;;19.33;59.84;100552.00;4893755;29;45507;-82
2022/09/09 01:17:57;;;;;;;;;1.50;1.00;;;;;19.35;59.85;100567.16;4887842;29;47298;-83
2022/09/09 01:20:29;;;;;;;;;1.00;1.00;;;;;19.34;60.03;100564.56;4899842;29;45653;-83
2022/09/09 01:23:38;;;;;;;;;1.00;0.75;;;;;19.34;59.89;100560.00;4885045;29;45322;-82
2022/09/09 01:26:32;;;;;;;;;1.00;1.00;;;;;19.34;60.24;100569.97;4842422;29;45334;-82
2022/09/09 01:28:57;;;;;;;;;1.00;0.50;;;;;19.28;60.29;100555.06;4831581;29;45352;-83
2022/09/09 01:31:28;;;;;;;;;0.75;0.00;;;;;19.28;60.02;100557.78;4866726;29;45389;-80
2022/09/09 01:33:53;;;;;;;;;1.25;1.25;;;;;19.20;59.91;100544.78;4881985;29;45305;-82
2022/09/09 01:36:35;;;;;;;;;0.00;0.00;;;;;19.32;60.27;100561.97;4892171;29;45541;-82
2022/09/09 01:39:00;;;;;;;;;0.25;0.25;;;;;19.28;60.49;100556.88;4900849;29;45465;-82
2022/09/09 01:41:26;;;;;;;;;0.25;0.25;;;;;19.28;60.46;100559.59;4889564;29;45319;-82
2022/09/09 01:43:54;;;;;;;;;1.00;0.25;;;;;19.27;60.31;100556.03;4891647;29;45383;-82
2022/09/09 01:46:21;;;;;;;;;0.25;0.00;;;;;19.28;60.54;100565.88;4889655;29;45475;-82
2022/09/09 01:48:48;;;;;;;;;2.00;1.00;;;;;19.23;60.35;100570.78;4903490;29;45508;-82
2022/09/09 01:51:13;;;;;;;;;2.75;1.00;;;;;19.26;60.36;100584.06;4900904;29;45561;-82
2022/09/09 01:53:41;;;;;;;;;1.00;0.00;;;;;19.25;60.20;100585.06;4881681;29;45644;-82
2022/09/09 01:56:36;;;;;;;;;2.00;1.50;;;;;19.25;60.74;100580.50;4905392;29;45456;-82
2022/09/09 01:59:35;;;;;;;;;4.00;1.00;;;;;19.27;60.49;100568.72;4864757;29;45271;-80
2022/09/09 02:02:00;;;;;;;;;0.00;0.00;;;;;19.24;60.30;100565.25;4892351;29;45513;-80
2022/09/09 02:04:39;;;;;;;;;0.75;0.00;;;;;19.25;60.44;100560.69;4893223;29;45322;-80
2022/09/09 02:07:19;;;;;;;;;2.00;1.00;;;;;19.21;60.54;100551.94;4897017;29;45330;-80
2022/09/09 02:09:51;;;;;;;;;1.75;1.75;;;;;19.23;60.71;100554.53;4904253;29;45366;-80
2022/09/09 02:12:23;;;;;;;;;0.50;0.50;;;;;19.23;60.73;100557.25;4882974;29;45367;-80
2022/09/09 02:15:14;;;;;;;;;1.75;1.25;;;;;19.27;60.33;100563.28;4886319;29;45392;-80
2022/09/09 02:17:42;;;;;;;;;0.00;0.00;;;;;19.20;60.53;100549.34;4894849;29;45352;-80
2022/09/09 02:20:11;;;;;;;;;1.75;0.75;;;;;19.25;60.26;100558.84;4904077;29;45462;-80
2022/09/09 02:22:42;;;;;;;;;2.25;2.00;;;;;19.22;60.48;100550.94;4878955;29;45344;-80
2022/09/09 02:25:11;;;;;;;;;1.50;0.00;;;;;19.10;60.33;100530.19;4884918;29;45401;-80
2022/09/09 02:27:37;;;;;;;;;3.00;1.00;;;;;19.17;60.74;100560.38;4900888;29;46251;-80
2022/09/09 02:30:04;;;;;;;;;2.00;1.00;;;;;19.10;60.70;100548.28;4903682;29;46379;-80
2022/09/09 02:32:34;;;;;;;;;2.00;2.00;;;;;19.10;60.70;100549.13;4898088;29;45566;-80
2022/09/09 02:35:05;;;;;;;;;4.50;1.00;;;;;19.12;60.73;100554.44;4895145;29;45478;-80
2022/09/09 02:37:36;;;;;;;;;2.00;2.00;;;;;19.11;60.88;100550.88;4888894;29;45429;-80
2022/09/09 02:40:07;;;;;;;;;1.75;0.75;;;;;19.06;60.86;100529.53;4892116;29;47727;-80
2022/09/09 02:42:43;;;;;;;;;1.75;1.75;;;;;19.11;61.02;100536.44;4898313;29;45416;-80
2022/09/09 02:45:10;;;;;;;;;2.25;1.00;;;;;19.14;60.71;100542.50;4895802;29;45306;-80
2022/09/09 02:47:42;;;;;;;;;4.00;4.00;;;;;19.11;60.75;100541.88;4900898;29;45372;-80
2022/09/09 02:50:25;;;;;;;;;2.75;0.75;;;;;19.17;60.96;100546.84;4889930;29;47194;-80
2022/09/09 02:53:28;;;;;;;;;1.00;0.75;;;;;19.18;60.87;100551.28;4904600;29;45301;-80
2022/09/09 02:56:03;;;;;;;;;3.00;1.00;;;;;19.18;60.97;100549.44;4874164;29;45314;-80
2022/09/09 02:58:29;;;;;;;;;2.00;2.00;;;;;19.15;60.94;100541.53;4880565;29;45284;-80
2022/09/09 03:00:57;;;;;;;;;0.75;0.75;;;;;19.04;61.07;100527.91;4905625;29;46255;-80
2022/09/09 03:03:23;;;;;;;;;1.75;1.75;;;;;19.05;60.98;100526.94;4875888;29;45284;-80
2022/09/09 03:05:48;;;;;;;;;1.00;1.00;;;;;19.11;61.57;100539.16;4899814;29;45280;-80
2022/09/09 03:08:14;;;;;;;;;2.50;1.00;;;;;19.03;60.84;100529.75;4909413;29;45644;-83
2022/09/09 03:10:39;;;;;;;;;2.00;2.00;;;;;19.05;61.09;100530.50;4875577;29;47383;-82
2022/09/09 03:13:05;;;;;;;;;1.00;1.00;;;;;18.97;60.94;100524.78;4879972;29;45200;-83
2022/09/09 03:15:34;;;;;;;;;2.50;1.00;;;;;19.05;61.28;100544.03;4898210;29;45418;-83
2022/09/09 03:18:01;;;;;;;;;3.25;1.75;;;;;19.04;61.18;100544.13;4906327;29;45485;-83
2022/09/09 03:20:28;;;;;;;;;1.00;1.00;;;;;19.04;61.39;100541.44;4890941;29;45841;-82
2022/09/09 03:22:54;;;;;;;;;4.00;2.00;;;;;19.02;61.64;100535.28;4901647;29;45450;-83
2022/09/09 03:25:20;;;;;;;;;1.00;1.00;;;;;19.04;61.45;100536.91;4904992;29;45220;-82
2022/09/09 03:27:46;;;;;;;;;3.75;2.50;;;;;19.03;61.22;100540.59;4886196;29;45484;-82
2022/09/09 03:30:11;;;;;;;;;2.00;1.00;;;;;18.99;61.17;100543.59;4897584;29;47205;-82
2022/09/09 03:32:37;;;;;;;;;2.00;1.00;;;;;19.00;61.58;100543.50;4887368;29;45443;-82
2022/09/09 03:35:03;;;;;;;;;2.50;1.75;;;;;18.95;61.89;100531.28;4888611;29;45204;-82
2022/09/09 03:37:28;;;;;;;;;2.50;1.00;;;;;18.97;61.55;100534.75;4888070;29;45481;-82
2022/09/09 03:39:56;;;;;;;;;1.00;0.75;;;;;18.95;61.61;100547.50;4887112;29;45403;-82
2022/09/09 03:42:21;;;;;;;;;1.75;0.25;;;;;18.94;61.58;100535.81;4903035;29;45423;-82
2022/09/09 03:44:49;;;;;;;;;4.50;1.00;;;;;18.99;61.65;100538.19;4903119;29;45321;-82
2022/09/09 03:47:19;;;;;;;;;1.00;1.00;;;;;18.97;61.58;100532.03;4905517;29;45442;-83
2022/09/09 03:49:45;;;;;;;;;0.50;0.50;;;;;18.99;61.65;100527.38;4900269;29;46074;-82
2022/09/09 03:52:11;;;;;;;;;1.00;1.00;;;;;18.98;61.88;100537.34;4900818;29;46335;-82
2022/09/09 03:54:36;;;;;;;;;4.00;1.75;;;;;18.95;61.99;100531.28;4898380;29;45332;-82
2022/09/09 03:57:02;;;;;;;;;2.00;2.00;;;;;18.96;61.57;100539.28;4896681;29;45686;-82
2022/09/09 03:59:27;;;;;;;;;2.50;0.50;;;;;18.94;61.88;100545.78;4905047;29;46384;-82
2022/09/09 04:01:53;;;;;;;;;1.00;1.00;;;;;18.93;61.83;100541.31;4900594;29;45426;-82
2022/09/09 04:04:19;;;;;;;;;4.00;1.00;;;;;18.94;61.65;100546.63;4896258;29;45324;-82
2022/09/09 04:06:45;;;;;;;;;2.25;2.00;;;;;18.92;61.65;100545.03;4904012;29;45191;-83
2022/09/09 04:09:11;;;;;;;;;3.00;2.00;;;;;18.92;61.96;100539.63;4888905;29;48128;-82
2022/09/09 04:11:37;;;;;;;;;4.00;2.00;;;;;18.88;62.02;100528.16;4883870;29;45765;-82
2022/09/09 04:14:05;;;;;;;;;2.25;1.25;;;;;18.85;62.15;100529.22;4880597;29;45277;-80
2022/09/09 04:16:32;;;;;;;;;1.50;1.50;;;;;18.86;62.28;100527.38;4897176;29;45379;-80
2022/09/09 04:18:58;;;;;;;;;1.25;1.25;;;;;18.86;61.99;100530.06;4892889;29;45354;-80
2022/09/09 04:21:23;;;;;;;;;1.00;1.00;;;;;18.88;62.03;100528.16;4898385;29;45365;-80
2022/09/09 04:23:48;;;;;;;;;2.75;2.00;;;;;18.88;61.96;100529.00;4900393;29;45395;-80
2022/09/09 04:26:14;;;;;;;;;0.50;0.50;;;;;18.81;62.17;100516.88;4905752;29;45428;-80
2022/09/09 04:28:39;;;;;;;;;3.75;1.25;;;;;18.85;62.31;100529.22;4892537;29;46088;-80
2022/09/09 04:31:19;;;;;;;;;2.00;2.00;;;;;18.85;61.98;100531.91;4889738;29;45278;-82
2022/09/09 04:33:46;;;;;;;;;2.50;2.50;;;;;18.80;62.35;100520.53;4904827;29;45443;-82
2022/09/09 04:36:12;;;;;;;;;2.00;1.00;;;;;18.87;62.28;100531.81;4905378;29;45461;-82
2022/09/09 04:38:38;;;;;;;;;2.25;1.75;;;;;18.84;62.19;100535.63;4904607;29;46304;-82
2022/09/09 04:41:04;;;;;;;;;2.50;2.00;;;;;18.83;62.22;100539.28;4901732;28;45338;-83
2022/09/09 04:43:30;;;;;;;;;2.00;2.00;;;;;18.82;62.62;100540.22;4891758;29;45245;-83
2022/09/09 04:45:56;;;;;;;;;5.50;2.00;;;;;18.74;62.47;100525.50;4886422;29;45289;-83
2022/09/09 04:48:22;;;;;;;;;1.75;1.75;;;;;18.72;62.92;100528.31;4890478;29;45283;-83
2022/09/09 04:50:59;;;;;;;;;3.00;1.25;;;;;18.78;62.91;100544.13;4881889;29;45201;-83
2022/09/09 04:53:25;;;;;;;;;1.50;1.50;;;;;18.77;62.78;100536.13;4893317;29;45391;-83
2022/09/09 04:55:51;;;;;;;;;4.00;2.50;;;;;18.75;62.73;100532.66;4904853;29;45484;-83
2022/09/09 04:58:17;;;;;;;;;3.50;3.00;;;;;18.72;62.86;100531.03;4891333;29;45470;-83
2022/09/09 05:00:42;;;;;;;;;1.50;1.50;;;;;18.75;62.66;100546.19;4897245;29;45321;-83
2022/09/09 05:03:08;;;;;;;;;1.25;1.25;;;;;18.70;62.45;100544.63;4903460;29;46059;-83
2022/09/09 05:05:34;;;;;;;;;3.00;3.00;;;;;18.63;62.79;100542.50;4875992;29;45520;-83
2022/09/09 05:08:02;;;;;;;;;3.25;2.00;;;;;18.60;63.27;100540.00;4905008;29;45495;-83
2022/09/09 05:10:27;;;;;;;;;4.00;3.00;;;;;18.61;62.94;100547.13;4894449;29;45726;-83
2022/09/09 05:12:54;;;;;;;;;1.00;1.00;;;;;18.57;63.26;100549.16;4896180;29;45522;-83
2022/09/09 05:15:20;;;;;;;;;3.00;2.00;;;;;18.46;63.31;100528.31;4900366;29;45470;-83
2022/09/09 05:17:46;;;;;;;;;2.00;2.00;;;;;18.61;63.50;100558.81;4900917;29;46135;-83
2022/09/09 05:20:11;;;;;;;;;3.25;1.75;;;;;18.60;63.21;100556.22;4899230;29;45727;-83
2022/09/09 05:22:37;;;;;;;;;4.25;1.25;;;;;18.61;63.08;100556.13;4891935;29;45312;-82
2022/09/09 05:25:03;;;;;;;;;2.00;2.00;;;;;18.58;63.50;100547.34;4885195;29;45545;-83
2022/09/09 05:27:31;;;;;;;;;4.50;1.75;;;;;18.60;63.34;100565.19;4869374;29;48211;-83
2022/09/09 05:29:57;;;;;;;;;2.00;2.00;;;;;18.59;63.34;100563.44;4882073;29;45725;-83
2022/09/09 05:32:22;;;;;;;;;2.00;2.00;;;;;18.56;63.57;100557.38;4901647;29;47084;-83
2022/09/09 05:34:48;;;;;;;;;3.00;1.50;;;;;18.59;63.32;100566.13;4888641;29;45297;-83
2022/09/09 05:37:13;;;;;;;;;2.75;1.75;;;;;18.56;63.36;100563.69;4897642;29;46173;-82
2022/09/09 05:39:38;;;;;;;;;2.25;1.75;;;;;18.56;63.62;100579.00;4892553;29;45387;-82
2022/09/09 05:42:04;;;;;;;;;2.00;2.00;;;;;18.52;63.89;100571.09;4896289;29;45463;-82
2022/09/09 05:44:30;;;;;;;;;3.00;2.00;;;;;18.47;63.83;100565.16;4882864;29;45737;-82
2022/09/09 05:46:55;;;;;;;;;3.00;1.50;;;;;18.50;63.99;100564.09;4887741;29;45351;-79
2022/09/09 05:49:21;;;;;;;;;3.00;3.00;;;;;18.49;64.04;100565.03;4884354;29;45365;-85
2022/09/09 05:51:47;;;;;;;;;1.75;1.75;;;;;18.51;63.89;100563.97;4884400;29;45608;-85
2022/09/09 05:54:15;;;;;;;;;2.75;2.75;;;;;18.48;63.92;100566.88;4894087;28;46631;-82
2022/09/09 05:56:41;;;;;;;;;3.25;3.00;;;;;18.44;63.79;100554.56;4903120;28;45550;-85
2022/09/09 05:59:06;;;;;;;;;4.50;2.00;;;;;18.51;64.37;100563.13;4888895;29;45352;-86
2022/09/09 06:01:34;;;;;;;;;3.00;3.00;;;;;18.44;64.25;100550.97;4919985;28;45200;-85
2022/09/09 06:03:59;;;;;;;;;2.50;2.25;;;;;18.48;64.33;100553.38;4907448;29;45402;-85
2022/09/09 06:06:29;;;;;;;;;4.00;2.00;;;;;18.51;64.37;100546.91;4890078;29;48527;-85
2022/09/09 06:08:57;;;;;;;;;2.25;2.25;;;;;18.51;64.51;100546.91;4878634;29;44881;-85
2022/09/09 06:11:26;;;;;;;;;4.25;3.00;;;;;18.46;64.48;100549.91;4901318;29;45309;-85
2022/09/09 06:13:53;;;;;;;;;4.75;2.00;;;;;18.47;64.46;100548.06;4893039;29;45232;-85
2022/09/09 06:16:24;;;;;;;;;2.00;1.75;;;;;18.54;64.21;100551.22;4876699;29;47451;-85
2022/09/09 06:18:50;;;;;;;;;1.50;1.50;;;;;18.57;64.52;100559.13;4882242;29;45461;-85
2022/09/09 06:21:24;;;;;;;;;1.75;1.75;;;;;18.59;64.58;100563.44;4906652;29;45430;-85
2022/09/09 06:23:53;;;;;;;;;2.50;1.50;;;;;18.52;64.42;100552.19;4889491;29;45470;-86
2022/09/09 06:26:22;;;;;;;;;1.75;1.75;;;;;18.49;64.40;100552.41;4902019;29;45336;-88
2022/09/09 06:28:49;;;;;;;;;4.25;2.50;;;;;18.47;64.25;100548.06;4904973;29;45327;-81
2022/09/09 06:31:23;;;;;;;;;3.25;2.75;;;;;18.59;64.70;100565.28;4873671;29;45434;-82
2022/09/09 06:33:54;;;;;;;;;3.50;3.00;;;;;18.60;64.65;100575.13;4888846;29;45264;-87
2022/09/09 06:36:23;;;;;;;;;3.75;2.75;;;;;18.61;64.67;100563.34;4877884;29;47164;-88
2022/09/09 06:38:48;;;;;;;;;4.75;2.75;;;;;18.58;64.38;100545.50;4897691;29;45303;-88
2022/09/09 06:41:18;;;;;;;;;3.00;2.75;;;;;18.63;64.53;100561.41;4893318;29;45276;-86
2022/09/09 06:43:44;;;;;;;;;5.00;3.00;;;;;18.61;64.42;100552.53;4903785;29;45323;-87
2022/09/09 06:46:23;;;;;;;;;3.75;3.00;;;;;18.69;64.75;100566.38;4898538;29;45423;-87
2022/09/09 06:48:49;;;;;;;;;2.50;2.00;;;;;18.68;64.14;100568.22;4892468;28;44872;-87
2022/09/09 06:51:16;;;;;;;;;3.00;2.25;;;;;18.65;64.14;100570.28;4903425;29;45361;-82
2022/09/09 06:53:43;;;;;;;;;2.00;2.00;;;;;18.64;64.33;100560.44;4904361;29;45218;-82
2022/09/09 06:56:25;;;;;;;;;2.00;2.00;;;;;18.72;64.39;100568.00;4904368;28;47225;-80
2022/09/09 06:58:52;;;;;;;;;3.00;3.00;;;;;18.77;63.74;100565.84;4890481;29;46357;-88
2022/09/09 07:01:20;;;;;;;;;2.00;1.50;;;;;18.77;63.58;100569.41;4909704;29;45355;-80
2022/09/09 07:03:48;;;;;;;;;4.75;2.50;;;;;18.81;63.91;100568.25;4902404;28;45439;-79
2022/09/09 07:06:17;;;;;;;;;1.50;1.50;;;;;18.82;64.27;100566.41;4886059;29;47362;-79
2022/09/09 07:08:43;;;;;;;;;2.50;2.00;;;;;18.75;63.91;100559.69;4903620;29;45578;-79
2022/09/09 07:11:08;;;;;;;;;2.00;2.00;;;;;18.79;64.01;100556.66;4900215;29;45308;-80
2022/09/09 07:13:35;;;;;;;;;1.00;1.00;;;;;18.81;63.84;100568.25;4881098;29;44932;-79
2022/09/09 07:16:09;;;;;;;;;3.25;2.00;;;;;18.85;64.18;100579.75;4887039;29;47682;-80
2022/09/09 07:18:34;;;;;;;;;0.75;0.75;;;;;18.87;63.62;100584.06;4889923;29;45529;-88
2022/09/09 07:21:01;;;;;;;;;2.00;0.75;;;;;18.88;63.92;100580.38;4883633;29;45577;-87
2022/09/09 07:23:27;;;;;;;;;2.00;1.25;;;;;18.87;64.32;100577.78;4881609;28;45313;-88
2022/09/09 07:25:53;;;;;;;;;2.00;1.00;;;;;18.92;63.69;100591.84;4905246;29;46683;-88
2022/09/09 07:28:19;;;;;;;;;3.00;1.00;;;;;18.95;63.50;100591.66;4902466;28;45393;-88
2022/09/09 07:30:56;;;;;;;;;2.50;1.50;;;;;18.97;63.97;100596.94;4905626;29;45460;-88
2022/09/09 07:33:22;;;;;;;;;2.00;1.25;;;;;18.99;63.56;100589.59;4889937;29;45444;-86
2022/09/09 07:35:48;;;;;;;;;2.50;1.75;;;;;18.96;63.64;100593.38;4897769;29;46273;-86
2022/09/09 07:38:14;;;;;;;;;2.75;1.25;;;;;18.96;63.67;100587.97;4885992;29;45368;-86
2022/09/09 07:40:40;;;;;;;;;3.50;2.50;;;;;19.11;63.88;100607.69;4899838;29;45355;-80
2022/09/09 07:43:05;;;;;;;;;2.00;2.00;;;;;19.14;63.57;100604.72;4887943;29;45354;-87
2022/09/09 07:45:33;;;;;;;;;3.00;2.00;;;;;19.14;63.44;100604.72;4888325;29;46329;-87
2022/09/09 07:47:58;;;;;;;;;1.00;1.00;;;;;19.20;63.14;100607.00;4903066;28;45368;-88
2022/09/09 07:50:24;;;;;;;;;4.75;3.00;;;;;19.21;63.09;100600.63;4883810;29;45254;-87
2022/09/09 07:52:51;;;;;;;;;3.00;2.00;;;;;19.24;62.88;100602.25;4876404;29;45341;-87
2022/09/09 07:55:16;;;;;;;;;3.25;2.50;;;;;19.22;62.68;100602.34;4902148;29;46340;-88
2022/09/09 07:57:42;;;;;;;;;2.00;2.00;;;;;19.23;62.97;100601.38;4905050;29;45378;-88
2022/09/09 08:00:08;;;;;;;;;1.75;1.75;;;;;19.28;62.57;100608.31;4874149;29;45446;-88
2022/09/09 08:02:33;;;;;;;;;1.25;0.75;;;;;19.23;62.24;100601.38;4891220;29;45245;-88
2022/09/09 08:04:58;;;;;;;;;2.00;2.00;;;;;19.32;62.28;100618.81;4891681;28;45455;-88
2022/09/09 08:07:24;;;;;;;;;2.00;1.75;;;;;19.32;62.07;100621.50;4890015;29;45381;-87
2022/09/09 08:09:49;;;;;;;;;2.75;2.50;;;;;19.37;62.37;100615.78;4898096;29;45403;-87
2022/09/09 08:12:15;;;;;;;;;2.50;1.50;;;;;19.38;62.11;100609.41;4893795;28;45351;-87
2022/09/09 08:14:40;;;;;;;;;2.25;2.25;;;;;19.39;61.87;100611.97;4879255;29;47629;-88
2022/09/09 08:17:06;;;;;;;;;0.00;0.00;;;;;19.42;62.14;100619.88;4897971;28;45278;-89
2022/09/09 08:19:35;;;;;;;;;1.00;1.00;;;;;19.42;61.94;100624.44;4902552;29;45304;-88
2022/09/09 08:22:01;;;;;;;;;1.75;1.00;;;;;19.46;62.10;100628.63;4884783;29;45264;-86
2022/09/09 08:24:27;;;;;;;;;1.50;1.00;;;;;19.48;61.87;100632.13;4885886;29;46781;-82
2022/09/09 08:26:53;;;;;;;;;2.00;0.50;;;;;19.50;61.69;100635.59;4888542;29;45981;-81
2022/09/09 08:29:19;;;;;;;;;3.00;2.00;;;;;19.49;62.01;100632.97;4896443;29;45364;-81
2022/09/09 08:31:51;;;;;;;;;3.00;2.00;;;;;19.53;61.85;100640.78;4889251;29;45276;-83
2022/09/09 08:34:20;;;;;;;;;2.00;2.00;;;;;19.49;61.69;100624.84;4899214;29;45438;-81
2022/09/09 08:36:46;;;;;;;;;1.50;1.50;;;;;19.49;61.61;100628.44;4894221;29;45650;-81
2022/09/09 08:39:15;;;;;;;;;1.00;1.00;;;;;19.60;61.79;100646.63;4878718;29;45426;-82
2022/09/09 08:42:00;;;;;;;;;1.00;1.00;;;;;19.64;61.90;100631.88;4884539;29;45398;-84
2022/09/09 08:44:40;;;;;;;;;1.50;1.00;;;;;19.69;61.44;100634.25;4879189;29;47286;-84
2022/09/09 08:47:34;;;;;;;;;3.75;3.00;;;;;19.73;61.79;100639.34;4889577;29;45528;-87
2022/09/09 08:50:35;;;;;;;;;1.25;1.00;;;;;19.72;61.76;100634.03;4887969;29;45215;-84
2022/09/09 08:53:19;;;;;;;;;1.00;1.00;;;;;19.79;61.87;100638.06;4881761;28;45487;-80
2022/09/09 08:55:48;;;;;;;;;1.00;1.00;;;;;19.71;61.80;100630.47;4891878;29;46635;-80
2022/09/09 08:58:21;;;;;;;;;2.00;1.00;;;;;19.82;61.62;100650.53;4896056;29;45604;-81
2022/09/09 09:01:08;;;;;;;;;1.50;1.50;;;;;19.84;61.08;100645.84;4888863;29;46064;-79
2022/09/09 09:04:11;;;;;;;;;1.00;1.00;;;;;19.86;61.36;100652.88;4893031;29;45684;-79
2022/09/09 09:07:04;;;;;;;;;1.75;1.75;;;;;19.85;61.23;100650.31;4891658;29;46053;-81
2022/09/09 09:09:51;;;;;;;;;2.25;2.00;;;;;19.91;61.49;100671.50;4887711;29;45398;-82
2022/09/09 09:12:24;;;;;;;;;3.00;1.25;;;;;19.94;60.79;100665.88;4899252;29;45349;-80
2022/09/09 09:14:50;;;;;;;;;2.25;2.25;;;;;19.93;60.80;100661.41;4898776;29;45329;-80
2022/09/09 09:17:20;;;;;;;;;0.00;0.00;;;;;19.97;61.07;100668.34;4874015;29;47712;-80
2022/09/09 09:19:48;;;;;;;;;3.25;1.00;;;;;19.93;60.74;100670.44;4892874;29;45598;-80
2022/09/09 09:22:16;;;;;;;;;1.00;1.00;;;;;19.95;61.02;100676.59;4903127;29;45307;-80
2022/09/09 09:25:04;;;;;;;;;3.75;1.50;;;;;19.91;61.16;100676.91;4907382;29;45311;-82
2022/09/09 09:28:05;;;;;;;;;1.00;1.00;;;;;19.94;60.50;100677.56;4905802;29;45609;-83
2022/09/09 09:31:05;;;;;;;;;1.25;1.25;;;;;19.97;60.82;100671.94;4888879;29;45890;-83
2022/09/09 09:33:36;;;;;;;;;2.00;1.00;;;;;20.00;60.36;100692.53;4874663;29;45580;-84
2022/09/09 09:36:03;;;;;;;;;1.50;0.50;;;;;19.99;60.81;100679.94;4893469;29;45441;-82
2022/09/09 09:38:29;;;;;;;;;1.25;1.25;;;;;20.02;61.17;100690.56;4893237;28;46460;-81
2022/09/09 09:41:00;;;;;;;;;2.25;1.25;;;;;19.97;60.56;100693.59;4873795;29;45455;-81
2022/09/09 09:43:34;;;;;;;;;1.00;1.00;;;;;19.97;60.77;100693.59;4898568;28;45318;-81
2022/09/09 09:46:00;;;;;;;;;1.00;1.00;;;;;20.02;60.40;100700.53;4888179;29;45308;-81
2022/09/09 09:48:27;;;;;;;;;1.00;1.00;;;;;20.04;60.71;100707.56;4891567;29;48498;-80
2022/09/09 09:51:05;;;;;;;;;1.75;1.75;;;;;19.99;60.25;100697.06;4899451;29;45414;-80
2022/09/09 09:53:33;;;;;;;;;2.00;2.00;;;;;20.01;60.43;100705.06;4895385;29;45294;-80
2022/09/09 09:56:02;;;;;;;;;1.00;0.75;;;;;20.02;60.19;100698.69;4892710;29;45393;-81
2022/09/09 09:58:34;;;;;;;;;2.50;1.00;;;;;20.02;60.34;100704.09;4900654;29;45502;-80
2022/09/09 10:01:00;;;;;;;;;2.50;1.00;;;;;19.99;60.04;100688.06;4896341;29;45403;-80
2022/09/09 10:03:29;;;;;;;;;1.25;1.00;;;;;20.09;60.59;100699.97;4896178;29;45350;-80
2022/09/09 10:05:56;;;;;;;;;1.00;1.00;;;;;20.12;60.79;100709.72;4898676;29;45543;-80
2022/09/09 10:08:23;;;;;;;;;1.00;1.00;;;;;20.15;60.56;100710.34;4891901;29;46061;-80
2022/09/09 10:10:51;;;;;;;;;1.00;1.00;;;;;20.18;60.28;100702.00;4891382;29;45408;-80
2022/09/09 10:13:43;;;;;;;;;1.00;0.25;;;;;20.21;60.17;100706.31;4897930;28;45316;-80
2022/09/09 10:16:23;;;;;;;;;2.00;2.00;;;;;20.23;59.85;100712.53;4898479;29;45338;-81
2022/09/09 10:19:00;;;;;;;;;2.50;2.00;;;;;20.24;59.95;100705.25;4886869;29;45447;-80
2022/09/09 10:21:40;;;;;;;;;2.50;1.00;;;;;20.29;59.47;100722.03;4884212;29;45548;-79
2022/09/09 10:24:22;;;;;;;;;2.75;1.25;;;;;20.28;59.60;100723.00;4880178;29;45489;-83
2022/09/09 10:27:25;;;;;;;;;1.00;0.75;;;;;20.29;59.93;100724.75;4893735;29;45221;-84
2022/09/09 10:30:17;;;;;;;;;1.00;1.00;;;;;20.30;59.53;100716.50;4894332;29;46308;-84
2022/09/09 10:32:53;;;;;;;;;1.75;1.75;;;;;20.33;59.79;100716.28;4903680;29;45327;-84
2022/09/09 10:35:38;;;;;;;;;4.00;1.00;;;;;20.38;59.99;100717.78;4886564;29;45434;-84
2022/09/09 10:38:20;;;;;;;;;2.00;2.00;;;;;20.35;59.38;100717.03;4898803;29;45456;-84
2022/09/09 10:41:03;;;;;;;;;4.25;1.25;;;;;20.43;59.49;100711.03;4885059;29;45427;-83
2022/09/09 10:43:56;;;;;;;;;2.00;1.00;;;;;20.47;59.93;100738.78;4871252;29;46478;-84
2022/09/09 10:46:51;;;;;;;;;2.50;1.25;;;;;20.46;59.56;100709.94;4875368;29;45430;-84
2022/09/09 10:49:51;;;;;;;;;1.50;1.50;;;;;20.51;59.92;100715.88;4901854;29;45497;-84
2022/09/09 10:52:17;;;;;;;;;2.75;2.00;;;;;20.54;59.82;100712.94;4895179;28;45390;-84
2022/09/09 10:55:01;;;;;;;;;1.00;1.00;;;;;20.58;59.62;100708.16;4894553;29;45465;-84
2022/09/09 10:57:39;;;;;;;;;2.00;2.00;;;;;20.58;59.38;100709.03;4897295;29;45399;-84
2022/09/09 11:00:14;;;;;;;;;1.00;1.00;;;;;20.61;59.51;100708.78;4889034;29;45981;-84
2022/09/09 11:02:41;;;;;;;;;0.75;0.75;;;;;20.59;59.30;100697.19;4888179;29;47296;-84
2022/09/09 11:05:19;;;;;;;;;1.50;1.00;;;;;20.65;59.72;100706.75;4903615;29;45428;-84
2022/09/09 11:08:08;;;;;;;;;2.00;1.00;;;;;20.68;59.60;100710.09;4892356;29;46078;-84
2022/09/09 11:10:49;;;;;;;;;3.75;2.00;;;;;20.67;59.93;100702.94;4895030;29;45322;-84
2022/09/09 11:13:39;;;;;;;;;0.25;0.25;;;;;20.70;60.18;100705.41;4876108;29;46853;-84
2022/09/09 11:16:19;;;;;;;;;2.00;2.00;;;;;20.72;60.50;100702.59;4899732;29;45244;-84
2022/09/09 11:18:46;;;;;;;;;1.50;1.50;;;;;20.72;61.06;100711.59;4889543;28;45701;-83
2022/09/09 11:21:44;;;;;;;;;2.25;2.00;;;;;20.75;60.32;100707.78;4885244;29;45384;-83
2022/09/09 11:24:33;;;;;;;;;2.75;1.00;;;;;20.73;60.32;100698.88;4865996;29;45894;-84
2022/09/09 11:27:12;;;;;;;;;2.25;2.00;;;;;20.72;60.09;100695.31;4877596;29;45233;-84
2022/09/09 11:30:05;;;;;;;;;1.50;1.50;;;;;20.84;59.42;100704.38;4893348;28;45453;-86
2022/09/09 11:32:55;;;;;;;;;1.00;1.00;;;;;20.90;59.93;100708.47;4889423;29;45359;-82
2022/09/09 11:35:30;;;;;;;;;1.00;1.00;;;;;20.95;59.55;100708.09;4887186;29;46182;-81
2022/09/09 11:38:28;;;;;;;;;1.00;1.00;;;;;20.97;59.37;100711.59;4875801;29;45740;-80
2022/09/09 11:41:03;;;;;;;;;2.00;1.00;;;;;20.98;58.50;100706.03;4891621;29;45385;-83
2022/09/09 11:43:41;;;;;;;;;0.00;0.00;;;;;21.02;58.09;100715.66;4881994;29;46077;-82
2022/09/09 11:46:07;;;;;;;;;1.00;0.25;;;;;21.03;58.64;100719.22;4898523;29;45316;-82
2022/09/09 11:48:45;;;;;;;;;2.00;2.00;;;;;20.96;58.55;100704.41;4905175;28;45354;-82